Time;durP1;ratioP1;P1;durP2;ratioP2;P2;SDS_P1;SDS_P2;PMS_P1;PMS_P2;Temp;Humidity;BMP_temperature;BMP_pressure;BME280_temperature;BME280_humidity;BME280_pressure;Samples;Min_cycle;Max_cycle;Signal;HPM_P1;HPM_P2
2022/03/22 00:02:23;;;;;;;53.22;35.10;;;;;;;7.58;100.00;102936.69;5281430;28;20381;-80
2022/03/22 00:04:57;;;;;;;46.38;35.13;;;;;;;7.58;100.00;102945.50;5282242;28;20017;-80
2022/03/22 00:07:31;;;;;;;49.72;36.20;;;;;;;7.47;100.00;102945.16;5281827;28;20037;-80
2022/03/22 00:10:03;;;;;;;53.47;37.13;;;;;;;7.51;100.00;102943.22;5281877;28;20025;-79
2022/03/22 00:12:35;;;;;;;52.83;37.13;;;;;;;7.55;100.00;102950.97;5281178;28;20040;-80
2022/03/22 00:15:08;;;;;;;54.08;36.35;;;;;;;7.59;100.00;102946.41;5263731;28;20052;-80
2022/03/22 00:17:39;;;;;;;52.10;36.90;;;;;;;7.54;100.00;102946.59;5281497;28;20029;-80
2022/03/22 00:20:15;;;;;;;58.60;36.55;;;;;;;7.48;100.00;102946.88;5282076;28;20097;-80
2022/03/22 00:22:48;;;;;;;52.30;35.05;;;;;;;7.41;100.00;102942.78;5262794;28;20027;-80
2022/03/22 00:25:20;;;;;;;53.90;35.92;;;;;;;7.46;100.00;102954.06;5281100;28;20155;-80
2022/03/22 00:27:55;;;;;;;47.78;34.20;;;;;;;7.45;100.00;102938.19;5263509;28;20039;-80
2022/03/22 00:30:34;;;;;;;47.50;35.78;;;;;;;7.36;100.00;102953.63;5259998;28;20496;-80
2022/03/22 00:33:07;;;;;;;54.05;35.53;;;;;;;7.32;100.00;102940.56;5262165;28;20075;-80
2022/03/22 00:35:40;;;;;;;49.53;35.33;;;;;;;7.30;100.00;102953.88;5277350;28;20025;-80
2022/03/22 00:38:20;;;;;;;50.05;34.95;;;;;;;7.22;100.00;102960.47;5280792;28;20045;-80
2022/03/22 00:40:51;;;;;;;53.63;35.88;;;;;;;7.23;100.00;102948.94;5279979;28;20478;-80
2022/03/22 00:43:23;;;;;;;53.05;36.05;;;;;;;7.28;100.00;102955.75;5281542;28;20021;-80
2022/03/22 00:45:55;;;;;;;51.72;35.67;;;;;;;7.32;100.00;102961.78;5262539;28;20405;-80
2022/03/22 00:48:26;;;;;;;48.72;34.55;;;;;;;7.41;100.00;102965.81;5280620;28;20029;-80
2022/03/22 00:51:00;;;;;;;48.25;34.60;;;;;;;7.48;100.00;102961.94;5262208;28;20401;-79
2022/03/22 00:53:32;;;;;;;48.80;33.90;;;;;;;7.51;100.00;102951.19;5280763;28;20474;-80
2022/03/22 00:56:04;;;;;;;43.80;33.38;;;;;;;7.49;100.00;102955.72;5262950;28;20040;-79
2022/03/22 00:58:36;;;;;;;48.08;33.67;;;;;;;7.51;100.00;102961.81;5281036;28;20037;-80
2022/03/22 01:01:07;;;;;;;43.22;30.75;;;;;;;7.49;100.00;102955.72;5281187;28;20773;-80
2022/03/22 01:03:38;;;;;;;48.00;32.63;;;;;;;7.49;100.00;102947.75;5262797;28;20167;-80
2022/03/22 01:06:09;;;;;;;45.95;31.88;;;;;;;7.40;100.00;102954.34;5271010;28;20458;-79
2022/03/22 01:08:41;;;;;;;48.53;32.72;;;;;;;7.36;100.00;102964.25;5272936;28;20029;-79
2022/03/22 01:11:12;;;;;;;47.15;33.13;;;;;;;7.36;100.00;102958.94;5271780;28;20029;-79
2022/03/22 01:13:44;;;;;;;45.60;31.70;;;;;;;7.35;100.00;102964.31;5287151;28;20036;-79
2022/03/22 01:16:18;;;;;;;50.22;32.58;;;;;;;7.32;100.00;102961.78;5271160;28;20021;-79
2022/03/22 01:18:49;;;;;;;44.92;32.85;;;;;;;7.24;100.00;102946.22;5266499;28;20032;-79
2022/03/22 01:21:20;;;;;;;43.28;30.70;;;;;;;7.24;100.00;102963.91;5285795;28;20489;-79
2022/03/22 01:23:52;;;;;;;44.70;30.20;;;;;;;7.23;100.00;102962.22;5283040;28;20021;-79
2022/03/22 01:26:27;;;;;;;47.22;31.67;;;;;;;7.17;100.00;102964.22;5283063;28;20040;-79
2022/03/22 01:29:01;;;;;;;46.28;31.85;;;;;;;7.10;100.00;102951.25;5264032;28;20025;-79
2022/03/22 01:31:34;;;;;;;41.83;31.10;;;;;;;7.11;100.00;102958.31;5280776;28;20036;-80
2022/03/22 01:34:05;;;;;;;48.40;33.35;;;;;;;7.05;100.00;102963.88;5279962;28;20025;-79
2022/03/22 01:36:37;;;;;;;48.22;31.00;;;;;;;6.93;100.00;102942.25;5261867;28;20065;-80
2022/03/22 01:39:08;;;;;;;41.90;31.05;;;;;;;6.95;100.00;102952.81;5281645;28;20369;-79
2022/03/22 01:41:40;;;;;;;42.88;30.80;;;;;;;6.82;100.00;102941.88;5283751;28;20035;-79
2022/03/22 01:44:13;;;;;;;40.83;30.02;;;;;;;6.88;100.00;102957.53;5283946;28;20059;-78
2022/03/22 01:46:45;;;;;;;40.92;30.38;;;;;;;7.02;100.00;102966.69;5265578;28;20025;-79
2022/03/22 01:49:18;;;;;;;40.15;29.73;;;;;;;6.98;100.00;102961.50;5284426;28;20052;-79
2022/03/22 01:51:51;;;;;;;43.15;30.02;;;;;;;6.90;100.00;102960.97;5284516;28;20040;-79
2022/03/22 01:54:24;;;;;;;37.20;28.02;;;;;;;6.87;100.00;102963.75;5245115;28;20068;-79
2022/03/22 01:56:55;;;;;;;42.72;28.58;;;;;;;6.72;100.00;102961.78;5281397;28;20025;-79
2022/03/22 01:59:27;;;;;;;38.88;29.98;;;;;;;6.74;100.00;102960.75;5266345;28;20082;-79
2022/03/22 02:07:47;;;;;;;37.92;27.50;;;;;;;6.74;100.00;102951.97;5281812;28;20033;-79
2022/03/22 02:10:18;;;;;;;37.83;26.17;;;;;;;6.78;100.00;102957.06;5283298;28;20029;-79
2022/03/22 02:12:50;;;;;;;35.35;26.00;;;;;;;6.80;100.00;102956.97;5265248;28;20025;-79
2022/03/22 02:15:22;;;;;;;38.38;27.15;;;;;;;6.78;100.00;102956.19;5283370;28;20104;-78
2022/03/22 02:17:55;;;;;;;33.03;24.63;;;;;;;6.75;100.00;102953.66;5283354;28;20044;-79
2022/03/22 02:20:27;;;;;;;33.88;24.73;;;;;;;6.77;100.00;102941.22;5283955;28;20037;-79
2022/03/22 02:23:09;;;;;;;32.00;24.00;;;;;;;6.77;100.00;102944.72;5283336;28;20488;-79
2022/03/22 02:25:40;;;;;;;32.05;24.90;;;;;;;6.84;100.00;102941.78;5282446;28;20068;-79
2022/03/22 02:28:12;;;;;;;31.58;24.65;;;;;;;6.89;100.00;102943.34;5283484;28;20068;-79
2022/03/22 02:30:45;;;;;;;33.30;24.80;;;;;;;6.90;100.00;102941.53;5281467;28;20411;-79
2022/03/22 02:33:16;;;;;;;31.25;23.67;;;;;;;6.89;100.00;102942.44;5283416;28;20412;-79
2022/03/22 02:35:48;;;;;;;35.53;24.50;;;;;;;6.92;100.00;102942.31;5283302;28;20029;-79
2022/03/22 02:38:19;;;;;;;34.28;24.88;;;;;;;6.95;100.00;102947.50;5282919;28;20053;-79
2022/03/22 02:40:50;;;;;;;32.65;23.48;;;;;;;6.93;100.00;102944.91;5282986;28;20081;-79
2022/03/22 02:43:22;;;;;;;33.42;23.52;;;;;;;6.86;100.00;102945.25;5281909;28;36204;-79
2022/03/22 02:45:53;;;;;;;29.60;22.48;;;;;;;6.77;100.00;102949.19;5281992;28;20080;-79
2022/03/22 02:48:24;;;;;;;30.45;23.48;;;;;;;6.67;100.00;102954.00;5283325;28;20071;-79
2022/03/22 02:50:56;;;;;;;33.47;23.48;;;;;;;6.61;100.00;102947.19;5281879;28;20035;-79
2022/03/22 02:53:27;;;;;;;32.72;23.80;;;;;;;6.51;100.00;102943.19;5283349;28;20369;-79
2022/03/22 02:55:59;;;;;;;33.25;23.50;;;;;;;6.53;100.00;102948.44;5283248;28;20067;-79
2022/03/22 02:58:31;;;;;;;28.45;22.67;;;;;;;6.46;100.00;102949.63;5283381;28;20444;-79
2022/03/22 03:01:02;;;;;;;30.25;22.48;;;;;;;6.46;100.00;102950.47;5282692;28;20531;-79
2022/03/22 03:03:34;;;;;;;32.92;24.40;;;;;;;6.50;100.00;102953.84;5282774;28;20021;-79
2022/03/22 03:06:06;;;;;;;31.88;24.08;;;;;;;6.47;100.00;102954.84;5282805;28;20136;-79
2022/03/22 03:08:38;;;;;;;31.27;23.20;;;;;;;6.54;100.00;102958.09;5282495;28;20032;-79
2022/03/22 03:11:09;;;;;;;32.97;24.50;;;;;;;6.50;100.00;102956.50;5264636;28;20450;-79
2022/03/22 03:16:30;;;;;;;33.22;23.75;;;;;;;6.48;100.00;102955.72;5282858;28;20029;-79
2022/03/22 03:19:02;;;;;;;33.00;23.52;;;;;;;6.40;100.00;102951.59;5263514;28;20047;-79
2022/03/22 03:21:33;;;;;;;30.60;23.30;;;;;;;6.41;100.00;102963.91;5282294;28;20025;-79
2022/03/22 03:24:05;;;;;;;31.63;23.63;;;;;;;6.36;100.00;102959.72;5281230;28;20052;-79
2022/03/22 03:26:36;;;;;;;31.15;23.10;;;;;;;6.34;100.00;102958.94;5281680;28;20029;-78
2022/03/22 03:29:09;;;;;;;30.48;22.88;;;;;;;6.26;100.00;102959.25;5281988;28;20036;-78
2022/03/22 03:31:40;;;;;;;30.30;23.45;;;;;;;6.21;100.00;102956.78;5282030;28;20386;-79
2022/03/22 03:34:11;;;;;;;32.70;24.02;;;;;;;6.15;100.00;102956.16;5281906;28;20025;-79
2022/03/22 03:36:43;;;;;;;31.30;22.67;;;;;;;6.07;100.00;102964.44;5281598;28;20041;-79
2022/03/22 03:39:15;;;;;;;31.15;24.65;;;;;;;5.97;100.00;102965.72;5282318;28;20060;-79
2022/03/22 03:42:00;;;;;;;36.53;24.13;;;;;;;5.86;100.00;102964.31;5282196;28;20029;-79
2022/03/22 03:47:24;;;;;;;34.08;23.55;;;;;;;5.81;100.00;102973.38;5281763;28;20505;-78
2022/03/22 03:49:58;;;;;;;35.78;23.65;;;;;;;5.70;100.00;102979.09;5285171;28;20024;-78
2022/03/22 03:52:34;;;;;;;31.77;23.10;;;;;;;5.67;100.00;102974.75;5266877;28;20033;-78
2022/03/22 03:55:07;;;;;;;32.92;24.13;;;;;;;5.70;100.00;102979.09;5285029;28;20098;-78
2022/03/22 03:57:38;;;;;;;34.53;25.05;;;;;;;5.71;100.00;102995.81;5284585;28;20116;-79
2022/03/22 04:00:10;;;;;;;31.75;25.02;;;;;;;5.68;100.00;102978.28;5285026;28;20436;-79
2022/03/22 04:02:41;;;;;;;29.13;22.73;;;;;;;5.77;100.00;102987.66;5278780;28;20383;-78
2022/03/22 04:05:13;;;;;;;33.72;24.58;;;;;;;5.75;100.00;102982.41;5281518;28;20392;-79
2022/03/22 04:07:44;;;;;;;33.47;25.10;;;;;;;5.84;100.00;102992.66;5281721;28;20354;-78
2022/03/22 04:10:16;;;;;;;34.67;23.73;;;;;;;5.84;100.00;102983.84;5280704;28;20397;-79
2022/03/22 04:12:47;;;;;;;36.45;24.88;;;;;;;5.86;100.00;102993.44;5281701;28;20109;-78
2022/03/22 04:15:18;;;;;;;35.75;25.27;;;;;;;5.87;100.00;102989.00;5280807;28;20033;-79
2022/03/22 04:17:50;;;;;;;33.75;23.92;;;;;;;5.85;100.00;102985.56;5262858;28;20032;-79
2022/03/22 04:20:22;;;;;;;37.70;25.25;;;;;;;5.85;100.00;102983.75;5281490;28;20029;-78
2022/03/22 04:22:53;;;;;;;37.88;24.55;;;;;;;5.79;100.00;102989.31;5282016;28;20039;-79
2022/03/22 04:25:24;;;;;;;35.22;24.10;;;;;;;5.73;100.00;102992.19;5281469;28;20036;-79
2022/03/22 04:33:36;;;;;;;31.98;24.00;;;;;;;5.52;100.00;102999.13;5280659;28;20037;-79
2022/03/22 04:36:07;;;;;;;29.83;21.92;;;;;;;5.36;100.00;103001.50;5281299;28;20085;-79
2022/03/22 04:38:39;;;;;;;30.98;23.35;;;;;;;5.27;100.00;102985.94;5280868;28;20533;-79
2022/03/22 04:41:11;;;;;;;29.67;22.13;;;;;;;5.18;100.00;102995.09;5280549;28;20454;-79
2022/03/22 04:43:42;;;;;;;26.92;21.08;;;;;;;5.05;100.00;102992.03;5263248;28;20443;-79
2022/03/22 04:46:18;;;;;;;33.97;23.30;;;;;;;4.83;100.00;102988.38;5281004;28;20052;-78
2022/03/22 04:48:49;;;;;;;34.30;23.17;;;;;;;4.78;100.00;103001.75;5278799;28;20025;-78
2022/03/22 04:57:02;;;;;;;36.40;25.67;;;;;;;4.71;100.00;102998.44;5280510;28;20717;-79
2022/03/22 04:59:33;;;;;;;37.20;25.83;;;;;;;4.84;100.00;103008.59;5279432;28;20032;-78
2022/03/22 05:02:05;;;;;;;35.05;24.92;;;;;;;4.88;100.00;103005.81;5279410;28;20033;-79
2022/03/22 05:04:37;;;;;;;35.10;25.80;;;;;;;4.92;100.00;103011.88;5280831;28;20029;-79
2022/03/22 05:07:08;;;;;;;36.03;26.00;;;;;;;4.96;100.00;103013.50;5280912;28;20033;-79
2022/03/22 05:09:40;;;;;;;35.97;24.85;;;;;;;4.98;100.00;103006.38;5262522;28;20473;-79
2022/03/22 05:12:13;;;;;;;36.45;24.85;;;;;;;4.96;100.00;103015.28;5262377;28;20017;-78
2022/03/22 05:14:50;;;;;;;34.60;25.05;;;;;;;4.96;100.00;103021.44;5282498;28;20075;-79
2022/03/22 05:17:21;;;;;;;34.15;24.15;;;;;;;4.97;100.00;103024.94;5283445;28;20028;-78
2022/03/22 05:19:53;;;;;;;35.67;25.98;;;;;;;4.96;100.00;103020.56;5284446;28;20028;-78
2022/03/22 05:22:24;;;;;;;32.08;24.02;;;;;;;4.90;100.00;103024.28;5283925;28;20099;-79
2022/03/22 05:24:55;;;;;;;32.13;23.73;;;;;;;4.89;100.00;103028.72;5266018;28;20086;-79
2022/03/22 05:27:27;;;;;;;33.97;25.02;;;;;;;4.89;100.00;103034.00;5282257;28;41567;-78
2022/03/22 05:29:58;;;;;;;38.90;25.25;;;;;;;4.85;100.00;103031.50;5284168;28;20024;-79
2022/03/22 05:32:29;;;;;;;40.13;26.08;;;;;;;4.89;100.00;103034.00;5265004;28;20140;-78
2022/03/22 05:35:01;;;;;;;37.78;24.75;;;;;;;4.95;100.00;103038.22;5284285;28;20029;-78
2022/03/22 05:37:32;;;;;;;36.47;25.48;;;;;;;4.91;100.00;103031.31;5284130;28;20045;-79
2022/03/22 05:40:04;;;;;;;35.03;26.10;;;;;;;4.91;100.00;103026.03;5267712;28;20055;-79
2022/03/22 05:42:40;;;;;;;33.55;25.02;;;;;;;4.92;100.00;103030.38;5287207;28;20048;-79
2022/03/22 05:45:12;;;;;;;34.67;25.13;;;;;;;4.97;100.00;103039.03;5295856;28;20037;-79
2022/03/22 05:47:44;;;;;;;39.80;26.48;;;;;;;5.01;100.00;103032.69;5309407;28;20016;-78
2022/03/22 05:50:20;;;;;;;34.00;25.98;;;;;;;5.03;100.00;103045.88;5298664;28;20055;-79
2022/03/22 05:52:51;;;;;;;37.80;24.23;;;;;;;5.06;100.00;103044.00;5271119;28;20094;-78
2022/03/22 05:55:22;;;;;;;34.33;25.25;;;;;;;5.11;100.00;103038.56;5284872;28;20451;-79
2022/03/22 05:57:54;;;;;;;35.50;25.08;;;;;;;5.08;100.00;103028.06;5286766;28;20021;-78
2022/03/22 06:00:25;;;;;;;34.03;24.15;;;;;;;5.17;100.00;103043.66;5285305;28;20048;-78
2022/03/22 06:02:56;;;;;;;33.88;25.13;;;;;;;5.15;100.00;103032.22;5284038;28;20025;-79
2022/03/22 06:05:31;;;;;;;33.35;25.92;;;;;;;5.32;100.00;103044.03;5284493;28;20104;-79
2022/03/22 06:08:04;;;;;;;36.35;26.90;;;;;;;5.42;100.00;103048.94;5288149;28;20047;-79
2022/03/22 06:10:35;;;;;;;37.97;25.00;;;;;;;5.53;100.00;103052.97;5288387;28;20033;-78
2022/03/22 06:13:07;;;;;;;38.10;24.75;;;;;;;5.62;100.00;103055.28;5291203;28;20029;-79
2022/03/22 06:15:41;;;;;;;35.97;24.45;;;;;;;5.71;100.00;103051.44;5289203;28;20055;-79
2022/03/22 06:18:13;;;;;;;33.90;24.65;;;;;;;5.81;100.00;103052.81;5289087;28;20041;-78
2022/03/22 06:20:44;;;;;;;33.92;24.27;;;;;;;5.83;100.00;103046.53;5293314;28;20083;-79
2022/03/22 06:23:17;;;;;;;33.47;24.77;;;;;;;5.98;100.00;103058.38;5289740;28;20021;-79
2022/03/22 06:25:48;;;;;;;32.28;23.40;;;;;;;6.11;100.00;103058.75;5283756;28;20044;-78
2022/03/22 06:28:20;;;;;;;34.03;24.40;;;;;;;6.18;100.00;103048.78;5266380;28;20029;-79
2022/03/22 06:30:51;;;;;;;34.47;23.88;;;;;;;6.34;100.00;103049.91;5283745;28;20017;-79
2022/03/22 06:33:24;;;;;;;32.45;23.15;;;;;;;6.60;100.00;103059.47;5282959;28;20029;-79
2022/03/22 06:35:55;;;;;;;31.48;23.65;;;;;;;6.76;100.00;103056.19;5281784;28;20029;-78
2022/03/22 06:38:27;;;;;;;38.17;25.02;;;;;;;6.86;100.00;103052.22;5281495;28;20040;-79
2022/03/22 06:40:59;;;;;;;36.63;24.67;;;;;;;7.00;100.00;103052.50;5281037;28;20025;-79
2022/03/22 06:43:30;;;;;;;32.47;23.15;;;;;;;7.32;100.00;103049.41;5264473;28;20063;-80
2022/03/22 06:46:02;;;;;;;34.25;24.48;;;;;;;7.58;100.00;103059.72;5283019;28;20112;-79
2022/03/22 06:48:33;;;;;;;31.83;23.55;;;;;;;7.95;100.00;103055.38;5272714;28;20028;-78
2022/03/22 06:51:04;;;;;;;36.53;23.88;;;;;;;8.35;100.00;103063.28;5291925;28;20142;-79
2022/03/22 06:53:36;;;;;;;34.50;22.90;;;;;;;8.72;100.00;103053.53;5296420;28;20041;-79
2022/03/22 06:56:07;;;;;;;31.73;23.75;;;;;;;9.12;100.00;103058.66;5294501;28;20024;-80
2022/03/22 06:58:39;;;;;;;39.17;23.50;;;;;;;9.50;100.00;103066.44;5286887;28;20158;-80
2022/03/22 07:01:11;;;;;;;35.65;23.10;;;;;;;9.81;100.00;103057.66;5288353;28;20025;-79
2022/03/22 07:03:42;;;;;;;35.67;23.27;;;;;;;10.15;100.00;103069.13;5287519;28;20390;-79
2022/03/22 07:06:14;;;;;;;33.70;22.63;;;;;;;10.44;100.00;103061.34;5288591;28;20140;-80
2022/03/22 07:08:45;;;;;;;31.48;23.27;;;;;;;10.77;100.00;103066.53;5284989;28;20040;-80
2022/03/22 07:14:06;;;;;;;35.65;22.38;;;;;;;11.46;100.00;103061.56;5283972;28;20100;-80
2022/03/22 07:16:38;;;;;;;28.13;20.63;;;;;;;11.74;100.00;103066.03;5284519;28;20104;-80
2022/03/22 07:19:09;;;;;;;28.05;21.58;;;;;;;12.33;100.00;103065.06;5266287;28;20365;-80
2022/03/22 07:21:44;;;;;;;29.80;21.45;;;;;;;12.86;100.00;103063.31;5284075;28;20020;-80
2022/03/22 07:24:20;;;;;;;31.60;21.75;;;;;;;13.31;100.00;103065.66;5282953;28;20531;-80
2022/03/22 07:26:52;;;;;;;31.33;22.00;;;;;;;13.56;100.00;103071.03;5282954;28;20486;-80
2022/03/22 07:29:23;;;;;;;27.08;22.15;;;;;;;14.22;100.00;103068.13;5284311;28;20117;-80
2022/03/22 07:31:56;;;;;;;27.20;20.48;;;;;;;14.33;100.00;103078.94;5283954;28;20119;-80
2022/03/22 07:34:28;;;;;;;35.97;19.95;;;;;;;14.89;100.00;103072.16;5283699;28;20028;-81
2022/03/22 07:36:59;;;;;;;30.85;21.02;;;;;;;15.51;100.00;103060.19;5264712;28;20064;-80
2022/03/22 07:39:34;;;;;;;28.55;21.38;;;;;;;16.10;95.83;103066.34;5283905;28;20020;-81
2022/03/22 07:42:05;;;;;;;29.55;21.15;;;;;;;16.61;88.98;103065.69;5283040;28;20016;-80
2022/03/22 07:44:38;;;;;;;28.58;20.48;;;;;;;17.00;83.43;103066.91;5283204;28;20036;-80
2022/03/22 07:47:09;;;;;;;32.05;21.40;;;;;;;17.63;78.12;103075.94;5283518;28;20033;-80
2022/03/22 07:55:21;;;;;;;27.83;20.95;;;;;;;19.28;62.72;103067.22;5282386;28;20568;-80
2022/03/22 07:57:53;;;;;;;25.67;20.77;;;;;;;19.41;57.47;103065.06;5283444;28;20017;-80
2022/03/22 08:00:26;;;;;;;26.65;20.10;;;;;;;19.16;52.70;103082.78;5283059;28;20024;-80
2022/03/22 08:03:03;;;;;;;26.73;19.63;;;;;;;19.91;50.63;103079.28;5273820;28;20028;-80
2022/03/22 08:05:35;;;;;;;24.52;19.52;;;;;;;19.73;50.87;103076.50;5263886;28;20120;-81
2022/03/22 08:08:07;;;;;;;26.60;19.77;;;;;;;20.30;48.44;103074.50;5283395;28;20021;-81
2022/03/22 08:10:38;;;;;;;27.30;19.67;;;;;;;20.92;46.83;103074.59;5282936;28;20028;-81
2022/03/22 08:13:10;;;;;;;29.50;20.13;;;;;;;20.30;45.28;103073.63;5282523;28;20025;-81
2022/03/22 08:15:41;;;;;;;30.30;20.58;;;;;;;21.06;44.35;103067.75;5283000;28;20103;-81
2022/03/22 08:18:12;;;;;;;26.58;19.48;;;;;;;22.66;42.96;103082.56;5264530;28;20045;-81
2022/03/22 08:20:44;;;;;;;27.15;18.45;;;;;;;22.65;41.78;103080.84;5282851;28;20060;-81
2022/03/22 08:23:15;;;;;;;27.35;20.20;;;;;;;24.21;39.98;103076.97;5282543;28;20116;-81
2022/03/22 08:25:49;;;;;;;26.60;19.58;;;;;;;25.16;37.23;103078.47;5282617;28;20482;-81
2022/03/22 08:28:21;;;;;;;24.58;18.65;;;;;;;24.40;35.37;103079.22;5281924;28;20478;-81
2022/03/22 08:30:52;;;;;;;21.80;19.33;;;;;;;25.16;35.56;103086.66;5282850;28;20021;-81
2022/03/22 08:33:24;;;;;;;29.90;20.30;;;;;;;26.72;33.68;103095.66;5282645;28;20017;-81
2022/03/22 08:35:55;;;;;;;22.33;19.55;;;;;;;26.25;32.08;103086.09;5282309;28;20036;-81
2022/03/22 08:38:26;;;;;;;26.25;19.75;;;;;;;26.01;32.54;103082.66;5282079;28;20076;-81
2022/03/22 08:40:58;;;;;;;25.15;19.08;;;;;;;24.86;32.40;103070.19;5281867;28;20163;-81
2022/03/22 08:43:30;;;;;;;25.33;20.25;;;;;;;26.19;30.90;103074.03;5282412;28;20033;-81
2022/03/22 08:46:01;;;;;;;25.33;19.10;;;;;;;25.82;31.07;103084.06;5279353;28;20172;-81
2022/03/22 08:48:34;;;;;;;25.10;20.15;;;;;;;27.77;29.79;103071.09;5282656;28;20100;-81
2022/03/22 08:51:05;;;;;;;26.95;19.33;;;;;;;28.85;27.34;103072.03;5285807;28;20036;-81
2022/03/22 08:53:37;;;;;;;23.85;19.08;;;;;;;29.14;27.06;103075.41;5285748;28;20021;-81
2022/03/22 08:56:09;;;;;;;24.20;19.50;;;;;;;29.65;26.38;103076.56;5285748;28;20037;-81
2022/03/22 08:58:41;;;;;;;24.58;18.98;;;;;;;30.20;26.00;103083.53;5285763;28;20046;-81
2022/03/22 09:01:12;;;;;;;23.25;20.27;;;;;;;30.80;24.53;103069.38;5267670;28;20112;-81
2022/03/22 09:06:07;;;;;;;24.30;19.08;;;;;;;30.79;24.42;103084.22;5269129;28;20518;-81
2022/03/22 09:06:37;;;;;;;25.05;19.30;;;;;;;31.07;23.74;103083.78;5270361;28;20501;-81
2022/03/22 09:09:10;;;;;;;27.55;18.70;;;;;;;30.53;22.97;103080.59;5274830;28;20021;-81
2022/03/22 09:11:41;;;;;;;24.75;18.48;;;;;;;29.95;24.00;103070.56;5282032;28;20339;-81
2022/03/22 09:14:12;;;;;;;27.07;19.37;;;;;;;30.14;24.16;103075.09;5264721;28;20207;-81
2022/03/22 09:16:44;;;;;;;23.00;19.52;;;;;;;31.23;22.68;103071.31;5264650;28;20280;-81
2022/03/22 09:19:15;;;;;;;25.08;19.42;;;;;;;31.88;22.07;103072.72;5269350;28;20450;-81
2022/03/22 09:21:47;;;;;;;24.35;19.58;;;;;;;32.86;21.92;103073.38;5284955;28;31647;-81
2022/03/22 09:24:18;;;;;;;24.70;19.35;;;;;;;32.04;21.41;103061.00;5285880;28;20086;-81
2022/03/22 09:26:49;;;;;;;21.77;18.88;;;;;;;33.52;20.21;103074.06;5285262;28;20033;-81
2022/03/22 09:29:21;;;;;;;22.88;18.65;;;;;;;33.64;20.19;103066.56;5264671;28;20215;-81
2022/03/22 09:31:52;;;;;;;22.98;18.88;;;;;;;33.43;20.67;103067.22;5285401;28;20466;-81
2022/03/22 09:34:25;;;;;;;23.77;19.25;;;;;;;33.95;20.25;103069.16;5285974;28;20072;-81
2022/03/22 09:36:56;;;;;;;26.58;19.83;;;;;;;32.70;20.89;103061.97;5285049;28;20041;-81
2022/03/22 09:39:27;;;;;;;27.75;19.63;;;;;;;32.29;21.06;103063.63;5284301;28;37297;-81
2022/03/22 09:42:02;;;;;;;25.58;19.92;;;;;;;33.47;20.60;103060.97;5285499;28;20326;-81
2022/03/22 09:44:34;;;;;;;28.37;20.97;;;;;;;34.45;19.55;103071.16;5285179;28;20021;-82
2022/03/22 09:47:07;;;;;;;24.63;20.25;;;;;;;34.47;19.14;103064.31;5285092;28;20033;-82
2022/03/22 09:49:38;;;;;;;24.98;19.27;;;;;;;36.21;18.17;103062.25;5267193;28;20025;-81
2022/03/22 09:52:11;;;;;;;27.67;19.27;;;;;;;35.20;17.82;103060.72;5285755;28;20496;-82
2022/03/22 09:54:42;;;;;;;23.00;19.67;;;;;;;36.99;17.07;103058.94;5280626;28;20568;-81
2022/03/22 09:57:13;;;;;;;26.67;20.15;;;;;;;35.40;17.89;103071.28;5263638;28;20025;-81
2022/03/22 09:59:45;;;;;;;29.20;19.48;;;;;;;36.53;16.76;103061.41;5277176;28;20029;-82
2022/03/22 10:02:27;;;;;;;26.65;18.30;;;;;;;38.08;17.51;103055.50;5285309;28;20533;-82
2022/03/22 10:04:59;;;;;;;22.23;19.17;;;;;;;37.25;16.54;103048.00;5285215;28;20047;-82
2022/03/22 10:07:30;;;;;;;23.15;20.52;;;;;;;34.12;17.66;103052.56;5285289;28;20029;-82
2022/03/22 10:10:05;;;;;;;22.08;18.95;;;;;;;37.33;16.39;103060.56;5266685;28;20019;-82
2022/03/22 10:12:37;;;;;;;20.05;18.00;;;;;;;36.19;17.56;103050.53;5266077;28;20424;-82
2022/03/22 10:15:12;;;;;;;24.50;18.67;;;;;;;37.80;15.20;103045.69;5266568;28;20104;-82
2022/03/22 10:17:44;;;;;;;20.60;18.50;;;;;;;35.14;16.73;103045.94;5266678;28;20481;-81
2022/03/22 10:20:24;;;;;;;24.20;19.92;;;;;;;35.77;17.64;103043.72;5284954;28;20287;-82
2022/03/22 10:22:56;;;;;;;25.73;19.17;;;;;;;38.23;15.49;103042.72;5284791;28;20048;-82
2022/03/22 10:25:32;;;;;;;21.98;18.17;;;;;;;37.82;15.45;103043.50;5284679;28;20412;-82
2022/03/22 10:28:08;;;;;;;22.13;19.38;;;;;;;36.62;16.19;103036.72;5261917;28;20108;-81
2022/03/22 10:30:40;;;;;;;21.52;19.00;;;;;;;38.46;14.94;103024.59;5263219;28;20466;-82
2022/03/22 10:33:11;;;;;;;23.42;20.15;;;;;;;35.52;16.72;103041.47;5263347;28;20021;-82
2022/03/22 10:35:45;;;;;;;25.15;19.58;;;;;;;36.32;16.75;103029.84;5263967;28;20143;-82
2022/03/22 10:38:20;;;;;;;22.20;19.85;;;;;;;36.67;15.72;103031.22;5265259;28;20095;-82
2022/03/22 10:40:51;;;;;;;22.65;17.60;;;;;;;37.63;15.30;103026.44;5284374;28;20025;-82
2022/03/22 10:43:26;;;;;;;24.60;19.75;;;;;;;36.77;15.92;103033.25;5284844;28;20021;-82
2022/03/22 10:46:04;;;;;;;22.55;18.33;;;;;;;38.91;14.68;103034.03;5283922;28;20432;-82
2022/03/22 10:48:38;;;;;;;23.08;19.27;;;;;;;38.89;14.81;103025.13;5283884;28;20017;-82
2022/03/22 10:51:10;;;;;;;19.97;17.97;;;;;;;38.89;14.09;103012.00;5282802;28;20053;-82
2022/03/22 10:53:41;;;;;;;21.25;18.17;;;;;;;38.96;14.39;103020.06;5265864;28;20108;-82
2022/03/22 10:56:15;;;;;;;23.73;17.88;;;;;;;38.32;14.35;103022.38;5283477;28;20013;-82
2022/03/22 10:58:47;;;;;;;21.48;18.17;;;;;;;38.27;14.25;103016.81;5283937;28;20028;-82
2022/03/22 11:01:20;;;;;;;18.58;16.65;;;;;;;40.11;13.46;103025.59;5283959;28;20478;-82
2022/03/22 11:03:56;;;;;;;19.42;17.33;;;;;;;39.60;13.73;103023.16;5283765;28;20101;-82
2022/03/22 11:06:29;;;;;;;22.30;16.70;;;;;;;40.61;13.39;103011.47;5252369;28;20049;-82
2022/03/22 11:09:01;;;;;;;18.40;16.40;;;;;;;41.35;12.88;103019.59;5247124;28;20128;-81
2022/03/22 11:11:35;;;;;;;21.20;17.17;;;;;;;39.16;13.97;103009.97;5282099;28;20429;-82
2022/03/22 11:14:06;;;;;;;20.38;17.83;;;;;;;39.68;13.28;103016.97;5284356;28;20024;-82
2022/03/22 11:16:38;;;;;;;20.52;16.20;;;;;;;38.86;13.73;103014.50;5283469;28;20017;-82
2022/03/22 11:19:10;;;;;;;22.65;17.85;;;;;;;39.80;13.92;103005.41;5265416;28;20028;-82
2022/03/22 11:21:41;;;;;;;20.98;17.17;;;;;;;40.50;13.20;103007.09;5284020;28;20025;-82
2022/03/22 11:24:14;;;;;;;21.92;16.90;;;;;;;40.46;13.12;102992.88;5284521;28;20024;-82
2022/03/22 11:26:47;;;;;;;20.38;16.77;;;;;;;37.72;14.55;103008.09;5283826;28;20374;-82
2022/03/22 11:29:19;;;;;;;19.05;15.75;;;;;;;38.39;14.08;103002.59;5283705;28;20013;-82
2022/03/22 11:34:43;;;;;;;22.95;15.65;;;;;;;38.38;14.63;103007.34;5284070;28;20029;-81
2022/03/22 11:37:28;;;;;;;22.17;16.48;;;;;;;38.89;14.65;103005.59;5283365;28;20077;-81
2022/03/22 11:42:54;;;;;;;21.92;15.85;;;;;;;38.53;14.37;102997.28;5283664;28;20087;-81
2022/03/22 11:45:26;;;;;;;16.98;15.18;;;;;;;37.89;14.43;102987.50;5264632;28;20025;-81
2022/03/22 11:48:08;;;;;;;21.13;15.75;;;;;;;39.55;14.39;102989.69;5283515;28;20013;-81
2022/03/22 11:50:43;;;;;;;19.45;16.48;;;;;;;38.54;14.10;103002.56;5283177;28;20032;-81
2022/03/22 11:53:20;;;;;;;19.55;16.65;;;;;;;38.94;14.22;102988.81;5283229;28;20017;-81
2022/03/22 11:55:57;;;;;;;20.73;17.92;;;;;;;40.01;13.78;102981.00;5271071;28;20108;-81
2022/03/22 11:58:28;;;;;;;21.13;16.67;;;;;;;38.34;14.30;102983.94;5262104;28;20369;-81
2022/03/22 12:01:01;;;;;;;23.20;16.23;;;;;;;37.83;14.58;102979.19;5244555;28;20032;-81
2022/03/22 12:03:35;;;;;;;19.10;16.50;;;;;;;39.32;13.76;102973.31;5278200;28;20032;-81
2022/03/22 12:06:11;;;;;;;18.58;16.48;;;;;;;38.46;14.35;102980.00;5243595;28;20120;-81
2022/03/22 12:08:42;;;;;;;21.30;16.85;;;;;;;37.34;14.88;102976.81;5262468;28;20365;-81
2022/03/22 12:11:16;;;;;;;20.20;17.02;;;;;;;37.94;14.52;102966.09;5266400;28;20030;-81